Terminal Aerodrome Forecast
Issued by NWS Wilmington, OH

Current Version | Previous Version | Graphics & Text | Print | Product List | Glossary On
Versions: 1 2 3 4 5 6 7 8 9 10 11 12 13 14 15 16 17 18 19 20 21 22 23
642
FTUS41 KILN 240828 AAA
TAFCVG
TAF AMD
KCVG 240828Z 2408/2512 VRB03KT 3SM BR FEW250
      TEMPO 2408/2412 00000KT 1/4SM FG VV002
     FM241400 29012KT P6SM SCT050
     FM251000 29004KT P6SM SKC=

USA.gov is the U.S. government's official web portal to all federal, state and local government web resources and services.